sensor_id;sensor_type;location;lat;lon;timestamp;temperature;humidity
61641;HTU21D;62201;49.966;8.342;2022-08-21T00:00:15;18.14;69.12
61641;HTU21D;62201;49.966;8.342;2022-08-21T00:02:47;18.14;68.28
61641;HTU21D;62201;49.966;8.342;2022-08-21T00:05:12;18.09;70.06
61641;HTU21D;62201;49.966;8.342;2022-08-21T00:07:38;18.11;70.19
61641;HTU21D;62201;49.966;8.342;2022-08-21T00:10:04;18.13;70.76
61641;HTU21D;62201;49.966;8.342;2022-08-21T00:12:30;18.07;72.25
61641;HTU21D;62201;49.966;8.342;2022-08-21T00:14:56;18.00;72.70
61641;HTU21D;62201;49.966;8.342;2022-08-21T00:17:21;17.92;73.65
61641;HTU21D;62201;49.966;8.342;2022-08-21T00:19:47;17.85;75.07
61641;HTU21D;62201;49.966;8.342;2022-08-21T00:22:13;17.89;74.89
61641;HTU21D;62201;49.966;8.342;2022-08-21T00:24:38;17.87;73.64
61641;HTU21D;62201;49.966;8.342;2022-08-21T00:27:04;17.85;74.53
61641;HTU21D;62201;49.966;8.342;2022-08-21T00:29:29;17.79;73.77
61641;HTU21D;62201;49.966;8.342;2022-08-21T00:31:54;17.72;74.01
61641;HTU21D;62201;49.966;8.342;2022-08-21T00:34:20;17.65;74.49
61641;HTU21D;62201;49.966;8.342;2022-08-21T00:36:45;17.63;76.03
61641;HTU21D;62201;49.966;8.342;2022-08-21T00:39:11;17.60;75.99
61641;HTU21D;62201;49.966;8.342;2022-08-21T00:41:37;17.55;77.47
61641;HTU21D;62201;49.966;8.342;2022-08-21T00:44:04;17.58;76.89
61641;HTU21D;62201;49.966;8.342;2022-08-21T00:46:30;17.62;75.49
61641;HTU21D;62201;49.966;8.342;2022-08-21T00:48:56;17.67;74.82
61641;HTU21D;62201;49.966;8.342;2022-08-21T00:51:49;17.70;75.53
61641;HTU21D;62201;49.966;8.342;2022-08-21T00:54:15;17.74;74.47
61641;HTU21D;62201;49.966;8.342;2022-08-21T00:56:42;17.76;73.44
61641;HTU21D;62201;49.966;8.342;2022-08-21T00:59:07;17.83;72.98
61641;HTU21D;62201;49.966;8.342;2022-08-21T01:01:33;17.88;72.52
61641;HTU21D;62201;49.966;8.342;2022-08-21T01:03:59;17.92;71.60
61641;HTU21D;62201;49.966;8.342;2022-08-21T01:06:25;17.95;70.42
61641;HTU21D;62201;49.966;8.342;2022-08-21T01:08:50;18.05;68.13
61641;HTU21D;62201;49.966;8.342;2022-08-21T01:11:16;18.09;68.70
61641;HTU21D;62201;49.966;8.342;2022-08-21T01:13:42;18.06;68.91
61641;HTU21D;62201;49.966;8.342;2022-08-21T01:16:11;18.06;68.41
61641;HTU21D;62201;49.966;8.342;2022-08-21T01:18:37;18.05;68.39
61641;HTU21D;62201;49.966;8.342;2022-08-21T01:21:13;17.95;68.26
61641;HTU21D;62201;49.966;8.342;2022-08-21T01:23:42;17.85;68.08
61641;HTU21D;62201;49.966;8.342;2022-08-21T01:26:09;17.79;68.18
61641;HTU21D;62201;49.966;8.342;2022-08-21T01:28:41;17.91;66.41
61641;HTU21D;62201;49.966;8.342;2022-08-21T01:31:08;17.91;65.69
61641;HTU21D;62201;49.966;8.342;2022-08-21T01:33:35;17.97;65.07
61641;HTU21D;62201;49.966;8.342;2022-08-21T01:36:00;17.96;64.98
61641;HTU21D;62201;49.966;8.342;2022-08-21T01:38:25;17.88;64.86
61641;HTU21D;62201;49.966;8.342;2022-08-21T01:40:51;17.80;64.88
61641;HTU21D;62201;49.966;8.342;2022-08-21T01:43:17;17.79;64.69
61641;HTU21D;62201;49.966;8.342;2022-08-21T01:45:42;17.78;64.53
61641;HTU21D;62201;49.966;8.342;2022-08-21T01:48:08;17.83;64.16
61641;HTU21D;62201;49.966;8.342;2022-08-21T01:50:33;17.85;64.26
61641;HTU21D;62201;49.966;8.342;2022-08-21T01:52:59;17.83;64.72
61641;HTU21D;62201;49.966;8.342;2022-08-21T01:55:24;17.83;64.79
61641;HTU21D;62201;49.966;8.342;2022-08-21T01:57:50;17.80;64.66
61641;HTU21D;62201;49.966;8.342;2022-08-21T02:00:19;17.73;64.77
61641;HTU21D;62201;49.966;8.342;2022-08-21T02:02:44;17.66;64.93
61641;HTU21D;62201;49.966;8.342;2022-08-21T02:05:11;17.69;64.94
61641;HTU21D;62201;49.966;8.342;2022-08-21T02:07:39;17.69;66.01
61641;HTU21D;62201;49.966;8.342;2022-08-21T02:10:06;17.73;65.37
61641;HTU21D;62201;49.966;8.342;2022-08-21T02:12:32;17.69;65.28
61641;HTU21D;62201;49.966;8.342;2022-08-21T02:14:57;17.72;64.90
61641;HTU21D;62201;49.966;8.342;2022-08-21T02:17:23;17.72;64.62
61641;HTU21D;62201;49.966;8.342;2022-08-21T02:19:48;17.69;64.47
61641;HTU21D;62201;49.966;8.342;2022-08-21T02:22:13;17.65;64.48
61641;HTU21D;62201;49.966;8.342;2022-08-21T02:24:39;17.65;64.36
61641;HTU21D;62201;49.966;8.342;2022-08-21T02:27:04;17.67;64.14
61641;HTU21D;62201;49.966;8.342;2022-08-21T02:29:30;17.69;63.97
61641;HTU21D;62201;49.966;8.342;2022-08-21T02:31:56;17.64;63.90
61641;HTU21D;62201;49.966;8.342;2022-08-21T02:34:21;17.65;64.93
61641;HTU21D;62201;49.966;8.342;2022-08-21T02:36:46;17.61;64.84
61641;HTU21D;62201;49.966;8.342;2022-08-21T02:39:12;17.56;64.95
61641;HTU21D;62201;49.966;8.342;2022-08-21T02:41:37;17.52;64.80
61641;HTU21D;62201;49.966;8.342;2022-08-21T02:44:03;17.44;65.04
61641;HTU21D;62201;49.966;8.342;2022-08-21T02:46:28;17.40;67.10
61641;HTU21D;62201;49.966;8.342;2022-08-21T02:49:00;17.34;68.93
61641;HTU21D;62201;49.966;8.342;2022-08-21T02:51:25;17.25;69.61
61641;HTU21D;62201;49.966;8.342;2022-08-21T02:53:52;17.22;69.86
61641;HTU21D;62201;49.966;8.342;2022-08-21T02:56:20;17.18;69.72
61641;HTU21D;62201;49.966;8.342;2022-08-21T02:58:49;17.17;69.95
61641;HTU21D;62201;49.966;8.342;2022-08-21T03:01:17;17.19;70.18
61641;HTU21D;62201;49.966;8.342;2022-08-21T03:03:44;17.14;70.58
61641;HTU21D;62201;49.966;8.342;2022-08-21T03:06:13;17.13;70.06
61641;HTU21D;62201;49.966;8.342;2022-08-21T03:08:38;17.13;70.41
61641;HTU21D;62201;49.966;8.342;2022-08-21T03:11:04;17.08;70.48
61641;HTU21D;62201;49.966;8.342;2022-08-21T03:13:30;17.05;70.19
61641;HTU21D;62201;49.966;8.342;2022-08-21T03:15:56;17.02;70.01
61641;HTU21D;62201;49.966;8.342;2022-08-21T03:18:21;16.95;69.49
61641;HTU21D;62201;49.966;8.342;2022-08-21T03:20:47;16.94;68.98
61641;HTU21D;62201;49.966;8.342;2022-08-21T03:23:13;16.94;68.87
61641;HTU21D;62201;49.966;8.342;2022-08-21T03:25:39;17.03;68.89
61641;HTU21D;62201;49.966;8.342;2022-08-21T03:28:07;17.02;68.71
61641;HTU21D;62201;49.966;8.342;2022-08-21T03:30:33;17.00;68.49
61641;HTU21D;62201;49.966;8.342;2022-08-21T03:32:59;16.93;68.37
61641;HTU21D;62201;49.966;8.342;2022-08-21T03:35:26;16.99;67.88
61641;HTU21D;62201;49.966;8.342;2022-08-21T03:37:51;16.98;67.41
61641;HTU21D;62201;49.966;8.342;2022-08-21T03:40:18;16.99;67.46
61641;HTU21D;62201;49.966;8.342;2022-08-21T03:42:44;17.01;67.23
61641;HTU21D;62201;49.966;8.342;2022-08-21T03:45:12;17.02;67.30
61641;HTU21D;62201;49.966;8.342;2022-08-21T03:47:38;17.00;67.41
61641;HTU21D;62201;49.966;8.342;2022-08-21T03:50:04;17.00;67.40
61641;HTU21D;62201;49.966;8.342;2022-08-21T03:52:29;16.91;67.59
61641;HTU21D;62201;49.966;8.342;2022-08-21T03:54:55;16.84;67.62
61641;HTU21D;62201;49.966;8.342;2022-08-21T03:57:20;16.78;67.75
61641;HTU21D;62201;49.966;8.342;2022-08-21T03:59:47;16.77;67.68
61641;HTU21D;62201;49.966;8.342;2022-08-21T04:02:14;16.78;67.47
61641;HTU21D;62201;49.966;8.342;2022-08-21T04:04:41;16.78;67.33
61641;HTU21D;62201;49.966;8.342;2022-08-21T04:07:06;16.77;67.35
61641;HTU21D;62201;49.966;8.342;2022-08-21T04:09:32;16.76;68.49
61641;HTU21D;62201;49.966;8.342;2022-08-21T04:11:58;16.78;68.23
61641;HTU21D;62201;49.966;8.342;2022-08-21T04:14:23;16.78;68.15
61641;HTU21D;62201;49.966;8.342;2022-08-21T04:16:49;16.72;68.07
61641;HTU21D;62201;49.966;8.342;2022-08-21T04:19:14;16.71;68.07
61641;HTU21D;62201;49.966;8.342;2022-08-21T04:21:40;16.69;68.12
61641;HTU21D;62201;49.966;8.342;2022-08-21T04:24:08;16.66;70.89
61641;HTU21D;62201;49.966;8.342;2022-08-21T04:26:35;16.57;72.04
61641;HTU21D;62201;49.966;8.342;2022-08-21T04:29:04;16.55;72.26
61641;HTU21D;62201;49.966;8.342;2022-08-21T04:31:32;16.48;73.30
61641;HTU21D;62201;49.966;8.342;2022-08-21T04:33:58;16.42;72.47
61641;HTU21D;62201;49.966;8.342;2022-08-21T04:36:24;16.40;74.75
61641;HTU21D;62201;49.966;8.342;2022-08-21T04:38:50;16.30;75.86
61641;HTU21D;62201;49.966;8.342;2022-08-21T04:41:15;16.20;77.85
61641;HTU21D;62201;49.966;8.342;2022-08-21T04:43:40;16.16;75.53
61641;HTU21D;62201;49.966;8.342;2022-08-21T04:46:06;16.13;74.85
61641;HTU21D;62201;49.966;8.342;2022-08-21T04:48:32;16.13;76.25
61641;HTU21D;62201;49.966;8.342;2022-08-21T04:51:16;16.14;76.02
61641;HTU21D;62201;49.966;8.342;2022-08-21T04:53:51;16.16;76.38
61641;HTU21D;62201;49.966;8.342;2022-08-21T04:58:47;16.22;76.02
61641;HTU21D;62201;49.966;8.342;2022-08-21T05:01:17;16.30;76.09
61641;HTU21D;62201;49.966;8.342;2022-08-21T05:03:45;16.39;75.78
61641;HTU21D;62201;49.966;8.342;2022-08-21T05:06:15;16.40;74.72
61641;HTU21D;62201;49.966;8.342;2022-08-21T05:08:42;16.49;75.09
61641;HTU21D;62201;49.966;8.342;2022-08-21T05:11:10;16.57;76.09
61641;HTU21D;62201;49.966;8.342;2022-08-21T05:13:35;16.48;75.97
61641;HTU21D;62201;49.966;8.342;2022-08-21T05:16:01;16.50;75.79
61641;HTU21D;62201;49.966;8.342;2022-08-21T05:18:26;16.59;75.18
61641;HTU21D;62201;49.966;8.342;2022-08-21T05:20:52;16.70;74.89
61641;HTU21D;62201;49.966;8.342;2022-08-21T05:23:17;16.78;73.91
61641;HTU21D;62201;49.966;8.342;2022-08-21T05:25:43;16.86;72.81
61641;HTU21D;62201;49.966;8.342;2022-08-21T05:28:09;16.93;73.18
61641;HTU21D;62201;49.966;8.342;2022-08-21T05:30:36;16.98;72.22
61641;HTU21D;62201;49.966;8.342;2022-08-21T05:33:03;17.06;72.12
61641;HTU21D;62201;49.966;8.342;2022-08-21T05:35:30;17.15;71.17
61641;HTU21D;62201;49.966;8.342;2022-08-21T05:37:57;17.24;70.81
61641;HTU21D;62201;49.966;8.342;2022-08-21T05:40:23;17.31;72.06
61641;HTU21D;62201;49.966;8.342;2022-08-21T05:42:50;17.32;72.31
61641;HTU21D;62201;49.966;8.342;2022-08-21T05:45:16;17.36;72.16
61641;HTU21D;62201;49.966;8.342;2022-08-21T05:47:42;17.34;71.84
61641;HTU21D;62201;49.966;8.342;2022-08-21T05:50:07;17.35;71.60
61641;HTU21D;62201;49.966;8.342;2022-08-21T05:52:33;17.41;71.26
61641;HTU21D;62201;49.966;8.342;2022-08-21T05:54:58;17.55;70.85
61641;HTU21D;62201;49.966;8.342;2022-08-21T05:57:23;17.70;70.03
61641;HTU21D;62201;49.966;8.342;2022-08-21T05:59:50;17.84;68.66
61641;HTU21D;62201;49.966;8.342;2022-08-21T06:02:19;17.97;67.09
61641;HTU21D;62201;49.966;8.342;2022-08-21T06:04:46;18.10;66.09
61641;HTU21D;62201;49.966;8.342;2022-08-21T06:07:12;18.15;65.43
61641;HTU21D;62201;49.966;8.342;2022-08-21T06:09:37;18.28;65.50
61641;HTU21D;62201;49.966;8.342;2022-08-21T06:12:12;18.40;63.33
61641;HTU21D;62201;49.966;8.342;2022-08-21T06:14:40;18.50;64.11
61641;HTU21D;62201;49.966;8.342;2022-08-21T06:17:11;18.54;63.41
61641;HTU21D;62201;49.966;8.342;2022-08-21T06:19:37;18.65;63.59
61641;HTU21D;62201;49.966;8.342;2022-08-21T06:22:03;18.76;63.12
61641;HTU21D;62201;49.966;8.342;2022-08-21T06:24:29;18.89;62.86
61641;HTU21D;62201;49.966;8.342;2022-08-21T06:26:54;18.99;62.28
61641;HTU21D;62201;49.966;8.342;2022-08-21T06:29:21;19.03;62.13
61641;HTU21D;62201;49.966;8.342;2022-08-21T06:31:48;19.12;62.13
61641;HTU21D;62201;49.966;8.342;2022-08-21T06:34:15;19.24;61.76
61641;HTU21D;62201;49.966;8.342;2022-08-21T06:36:40;19.25;60.88
61641;HTU21D;62201;49.966;8.342;2022-08-21T06:39:06;19.28;61.57
61641;HTU21D;62201;49.966;8.342;2022-08-21T06:41:32;19.35;61.31
61641;HTU21D;62201;49.966;8.342;2022-08-21T06:43:58;19.44;61.10
61641;HTU21D;62201;49.966;8.342;2022-08-21T06:46:25;19.53;60.31
61641;HTU21D;62201;49.966;8.342;2022-08-21T06:48:51;19.53;60.22
61641;HTU21D;62201;49.966;8.342;2022-08-21T06:51:16;19.51;60.47
61641;HTU21D;62201;49.966;8.342;2022-08-21T06:53:42;19.54;60.31
61641;HTU21D;62201;49.966;8.342;2022-08-21T06:56:07;19.71;60.23
61641;HTU21D;62201;49.966;8.342;2022-08-21T06:58:33;19.89;59.83
61641;HTU21D;62201;49.966;8.342;2022-08-21T07:00:59;20.01;59.69
61641;HTU21D;62201;49.966;8.342;2022-08-21T07:03:28;20.17;59.35
61641;HTU21D;62201;49.966;8.342;2022-08-21T07:05:54;20.30;58.96
61641;HTU21D;62201;49.966;8.342;2022-08-21T07:08:20;20.41;58.68
61641;HTU21D;62201;49.966;8.342;2022-08-21T07:10:46;20.51;58.48
61641;HTU21D;62201;49.966;8.342;2022-08-21T07:13:13;20.61;58.10
61641;HTU21D;62201;49.966;8.342;2022-08-21T07:15:38;20.74;58.00
61641;HTU21D;62201;49.966;8.342;2022-08-21T07:18:04;20.79;58.01
61641;HTU21D;62201;49.966;8.342;2022-08-21T07:20:30;20.86;57.69
61641;HTU21D;62201;49.966;8.342;2022-08-21T07:23:01;21.02;57.44
61641;HTU21D;62201;49.966;8.342;2022-08-21T07:25:27;21.09;57.22
61641;HTU21D;62201;49.966;8.342;2022-08-21T07:27:53;21.09;57.12
61641;HTU21D;62201;49.966;8.342;2022-08-21T07:30:19;21.17;56.86
61641;HTU21D;62201;49.966;8.342;2022-08-21T07:32:44;21.17;56.55
61641;HTU21D;62201;49.966;8.342;2022-08-21T07:35:10;21.27;56.50
61641;HTU21D;62201;49.966;8.342;2022-08-21T07:37:35;21.40;56.16
61641;HTU21D;62201;49.966;8.342;2022-08-21T07:40:01;21.48;55.82
61641;HTU21D;62201;49.966;8.342;2022-08-21T07:42:26;21.55;55.94
61641;HTU21D;62201;49.966;8.342;2022-08-21T07:44:52;21.53;55.69
61641;HTU21D;62201;49.966;8.342;2022-08-21T07:47:17;21.58;55.54
61641;HTU21D;62201;49.966;8.342;2022-08-21T07:49:43;21.66;55.27
61641;HTU21D;62201;49.966;8.342;2022-08-21T07:52:08;21.83;54.90
61641;HTU21D;62201;49.966;8.342;2022-08-21T07:54:33;22.04;54.64
61641;HTU21D;62201;49.966;8.342;2022-08-21T07:56:59;22.19;54.26
61641;HTU21D;62201;49.966;8.342;2022-08-21T07:59:24;22.32;53.86
61641;HTU21D;62201;49.966;8.342;2022-08-21T08:01:50;22.55;52.95
61641;HTU21D;62201;49.966;8.342;2022-08-21T08:04:15;22.40;53.23
61641;HTU21D;62201;49.966;8.342;2022-08-21T08:06:41;22.51;53.23
61641;HTU21D;62201;49.966;8.342;2022-08-21T08:09:06;22.83;52.69
61641;HTU21D;62201;49.966;8.342;2022-08-21T08:11:31;23.02;52.53
61641;HTU21D;62201;49.966;8.342;2022-08-21T08:13:57;23.21;52.18
61641;HTU21D;62201;49.966;8.342;2022-08-21T08:16:24;23.18;51.93
61641;HTU21D;62201;49.966;8.342;2022-08-21T08:18:50;23.38;52.01
61641;HTU21D;62201;49.966;8.342;2022-08-21T08:21:16;23.62;51.56
61641;HTU21D;62201;49.966;8.342;2022-08-21T08:23:43;23.87;51.14
61641;HTU21D;62201;49.966;8.342;2022-08-21T08:26:10;23.86;51.19
61641;HTU21D;62201;49.966;8.342;2022-08-21T08:28:35;24.13;50.95
61641;HTU21D;62201;49.966;8.342;2022-08-21T08:31:01;24.25;50.63
61641;HTU21D;62201;49.966;8.342;2022-08-21T08:33:26;24.27;50.32
61641;HTU21D;62201;49.966;8.342;2022-08-21T08:35:52;24.63;50.07
61641;HTU21D;62201;49.966;8.342;2022-08-21T08:38:19;25.28;49.18
61641;HTU21D;62201;49.966;8.342;2022-08-21T08:41:17;25.87;47.19
61641;HTU21D;62201;49.966;8.342;2022-08-21T08:43:55;26.01;46.69
61641;HTU21D;62201;49.966;8.342;2022-08-21T08:46:33;25.83;46.92
61641;HTU21D;62201;49.966;8.342;2022-08-21T08:49:14;25.82;46.89
61641;HTU21D;62201;49.966;8.342;2022-08-21T08:54:29;26.79;44.92
61641;HTU21D;62201;49.966;8.342;2022-08-21T08:56:59;26.79;45.92
61641;HTU21D;62201;49.966;8.342;2022-08-21T08:59:45;27.21;44.22
61641;HTU21D;62201;49.966;8.342;2022-08-21T09:02:13;27.00;45.34
61641;HTU21D;62201;49.966;8.342;2022-08-21T09:04:39;26.99;45.01
61641;HTU21D;62201;49.966;8.342;2022-08-21T09:07:35;27.39;43.21
61641;HTU21D;62201;49.966;8.342;2022-08-21T09:12:44;27.26;43.16
61641;HTU21D;62201;49.966;8.342;2022-08-21T09:15:30;27.58;43.67
61641;HTU21D;62201;49.966;8.342;2022-08-21T09:23:55;28.87;36.40
61641;HTU21D;62201;49.966;8.342;2022-08-21T09:27:11;29.29;35.09
61641;HTU21D;62201;49.966;8.342;2022-08-21T09:29:10;29.59;35.29
61641;HTU21D;62201;49.966;8.342;2022-08-21T09:31:36;29.68;32.96
61641;HTU21D;62201;49.966;8.342;2022-08-21T09:34:07;29.39;32.55
61641;HTU21D;62201;49.966;8.342;2022-08-21T09:36:42;29.32;32.76
61641;HTU21D;62201;49.966;8.342;2022-08-21T09:39:10;28.86;33.35
61641;HTU21D;62201;49.966;8.342;2022-08-21T09:41:36;28.71;33.89
61641;HTU21D;62201;49.966;8.342;2022-08-21T09:44:07;29.03;33.85
61641;HTU21D;62201;49.966;8.342;2022-08-21T09:46:33;28.93;34.44
61641;HTU21D;62201;49.966;8.342;2022-08-21T09:49:01;27.93;36.75
61641;HTU21D;62201;49.966;8.342;2022-08-21T09:51:32;27.82;36.84
61641;HTU21D;62201;49.966;8.342;2022-08-21T09:56:51;27.46;38.52
61641;HTU21D;62201;49.966;8.342;2022-08-21T09:59:37;28.68;36.31
61641;HTU21D;62201;49.966;8.342;2022-08-21T10:04:52;30.05;33.63
61641;HTU21D;62201;49.966;8.342;2022-08-21T10:07:20;30.18;33.14
61641;HTU21D;62201;49.966;8.342;2022-08-21T10:09:57;30.45;32.26
61641;HTU21D;62201;49.966;8.342;2022-08-21T10:12:32;29.83;33.00
61641;HTU21D;62201;49.966;8.342;2022-08-21T10:17:33;30.46;32.00
61641;HTU21D;62201;49.966;8.342;2022-08-21T10:20:22;30.56;31.89
61641;HTU21D;62201;49.966;8.342;2022-08-21T10:25:44;30.74;30.59
61641;HTU21D;62201;49.966;8.342;2022-08-21T10:28:22;30.38;31.19
61641;HTU21D;62201;49.966;8.342;2022-08-21T10:31:08;30.62;30.66
61641;HTU21D;62201;49.966;8.342;2022-08-21T10:33:49;30.91;30.42
61641;HTU21D;62201;49.966;8.342;2022-08-21T10:36:39;30.57;29.52
61641;HTU21D;62201;49.966;8.342;2022-08-21T10:39:31;31.11;28.36
61641;HTU21D;62201;49.966;8.342;2022-08-21T10:47:47;31.61;27.27
61641;HTU21D;62201;49.966;8.342;2022-08-21T10:50:41;30.93;27.96
61641;HTU21D;62201;49.966;8.342;2022-08-21T10:58:28;31.30;26.55
61641;HTU21D;62201;49.966;8.342;2022-08-21T11:01:03;31.37;26.65
61641;HTU21D;62201;49.966;8.342;2022-08-21T11:03:44;31.52;26.66
61641;HTU21D;62201;49.966;8.342;2022-08-21T11:06:20;31.18;26.49
61641;HTU21D;62201;49.966;8.342;2022-08-21T11:08:51;30.78;25.95
61641;HTU21D;62201;49.966;8.342;2022-08-21T11:11:29;30.97;26.98
61641;HTU21D;62201;49.966;8.342;2022-08-21T11:14:04;30.77;27.52
61641;HTU21D;62201;49.966;8.342;2022-08-21T11:16:37;30.37;27.83
61641;HTU21D;62201;49.966;8.342;2022-08-21T11:19:15;30.70;27.64
61641;HTU21D;62201;49.966;8.342;2022-08-21T11:25:00;30.70;26.28
61641;HTU21D;62201;49.966;8.342;2022-08-21T11:27:39;31.21;25.23
61641;HTU21D;62201;49.966;8.342;2022-08-21T11:30:06;31.16;25.73
61641;HTU21D;62201;49.966;8.342;2022-08-21T11:35:43;31.82;24.17
61641;HTU21D;62201;49.966;8.342;2022-08-21T11:38:27;32.84;22.84
61641;HTU21D;62201;49.966;8.342;2022-08-21T11:41:02;32.56;22.67
61641;HTU21D;62201;49.966;8.342;2022-08-21T11:43:41;31.83;23.48
61641;HTU21D;62201;49.966;8.342;2022-08-21T11:51:39;31.35;24.30
61641;HTU21D;62201;49.966;8.342;2022-08-21T11:56:41;31.75;23.59
61641;HTU21D;62201;49.966;8.342;2022-08-21T11:59:17;30.91;25.28
61641;HTU21D;62201;49.966;8.342;2022-08-21T12:01:48;30.84;24.90
61641;HTU21D;62201;49.966;8.342;2022-08-21T12:04:31;30.15;26.35
61641;HTU21D;62201;49.966;8.342;2022-08-21T12:07:10;30.77;25.04
61641;HTU21D;62201;49.966;8.342;2022-08-21T12:09:37;30.45;25.96
61641;HTU21D;62201;49.966;8.342;2022-08-21T12:12:09;30.49;25.34
61641;HTU21D;62201;49.966;8.342;2022-08-21T12:14:45;30.91;24.42
61641;HTU21D;62201;49.966;8.342;2022-08-21T12:17:34;31.18;23.79
61641;HTU21D;62201;49.966;8.342;2022-08-21T12:20:15;29.60;26.23
61641;HTU21D;62201;49.966;8.342;2022-08-21T12:22:49;29.29;26.89
61641;HTU21D;62201;49.966;8.342;2022-08-21T12:25:18;29.38;27.10
61641;HTU21D;62201;49.966;8.342;2022-08-21T12:27:47;29.51;26.91
61641;HTU21D;62201;49.966;8.342;2022-08-21T12:33:00;29.16;27.82
61641;HTU21D;62201;49.966;8.342;2022-08-21T12:35:37;28.71;28.39
61641;HTU21D;62201;49.966;8.342;2022-08-21T12:38:07;29.27;27.55
61641;HTU21D;62201;49.966;8.342;2022-08-21T12:40:42;29.52;26.96
61641;HTU21D;62201;49.966;8.342;2022-08-21T12:43:14;30.40;26.31
61641;HTU21D;62201;49.966;8.342;2022-08-21T12:45:46;30.71;25.49
61641;HTU21D;62201;49.966;8.342;2022-08-21T12:48:41;30.17;25.91
61641;HTU21D;62201;49.966;8.342;2022-08-21T12:51:16;29.52;27.13
61641;HTU21D;62201;49.966;8.342;2022-08-21T12:53:48;29.08;27.88
61641;HTU21D;62201;49.966;8.342;2022-08-21T12:56:17;29.02;27.96
61641;HTU21D;62201;49.966;8.342;2022-08-21T12:58:47;29.82;27.04
61641;HTU21D;62201;49.966;8.342;2022-08-21T13:01:29;30.59;25.70
61641;HTU21D;62201;49.966;8.342;2022-08-21T13:03:58;30.45;25.56
61641;HTU21D;62201;49.966;8.342;2022-08-21T13:06:26;30.61;25.04
61641;HTU21D;62201;49.966;8.342;2022-08-21T13:08:57;30.96;24.84
61641;HTU21D;62201;49.966;8.342;2022-08-21T13:11:24;31.39;24.69
61641;HTU21D;62201;49.966;8.342;2022-08-21T13:13:51;31.83;23.54
61641;HTU21D;62201;49.966;8.342;2022-08-21T13:16:26;32.38;23.05
61641;HTU21D;62201;49.966;8.342;2022-08-21T13:19:02;31.92;23.27
61641;HTU21D;62201;49.966;8.342;2022-08-21T13:21:48;32.38;22.79
61641;HTU21D;62201;49.966;8.342;2022-08-21T13:24:20;31.54;23.61
61641;HTU21D;62201;49.966;8.342;2022-08-21T13:26:47;30.96;24.78
61641;HTU21D;62201;49.966;8.342;2022-08-21T13:29:20;31.37;24.40
61641;HTU21D;62201;49.966;8.342;2022-08-21T13:31:57;31.93;23.52
61641;HTU21D;62201;49.966;8.342;2022-08-21T13:34:26;31.71;23.58
61641;HTU21D;62201;49.966;8.342;2022-08-21T13:36:58;31.81;23.30
61641;HTU21D;62201;49.966;8.342;2022-08-21T13:39:25;32.39;22.49
61641;HTU21D;62201;49.966;8.342;2022-08-21T13:41:54;32.84;21.82
61641;HTU21D;62201;49.966;8.342;2022-08-21T13:44:24;33.09;21.42
61641;HTU21D;62201;49.966;8.342;2022-08-21T13:46:58;32.83;21.96
61641;HTU21D;62201;49.966;8.342;2022-08-21T13:49:29;32.41;22.25
61641;HTU21D;62201;49.966;8.342;2022-08-21T13:51:55;32.46;22.02
61641;HTU21D;62201;49.966;8.342;2022-08-21T13:54:34;33.04;21.43
61641;HTU21D;62201;49.966;8.342;2022-08-21T13:57:00;33.66;20.86
61641;HTU21D;62201;49.966;8.342;2022-08-21T13:59:28;34.00;20.36
61641;HTU21D;62201;49.966;8.342;2022-08-21T14:04:35;34.20;19.98
61641;HTU21D;62201;49.966;8.342;2022-08-21T14:07:02;34.73;18.84
61641;HTU21D;62201;49.966;8.342;2022-08-21T14:09:31;34.95;18.85
61641;HTU21D;62201;49.966;8.342;2022-08-21T14:12:00;34.46;19.05
61641;HTU21D;62201;49.966;8.342;2022-08-21T14:14:30;33.87;19.78
61641;HTU21D;62201;49.966;8.342;2022-08-21T14:17:07;33.94;20.33
61641;HTU21D;62201;49.966;8.342;2022-08-21T14:19:42;33.81;20.17
61641;HTU21D;62201;49.966;8.342;2022-08-21T14:22:44;33.45;20.47
61641;HTU21D;62201;49.966;8.342;2022-08-21T14:25:26;33.33;20.57
61641;HTU21D;62201;49.966;8.342;2022-08-21T14:27:52;33.68;19.96
61641;HTU21D;62201;49.966;8.342;2022-08-21T14:30:27;33.79;20.21
61641;HTU21D;62201;49.966;8.342;2022-08-21T14:32:53;33.79;20.09
61641;HTU21D;62201;49.966;8.342;2022-08-21T14:35:19;33.14;20.50
61641;HTU21D;62201;49.966;8.342;2022-08-21T14:37:47;33.25;20.48
61641;HTU21D;62201;49.966;8.342;2022-08-21T14:40:15;34.03;19.25
61641;HTU21D;62201;49.966;8.342;2022-08-21T14:42:41;33.21;20.08
61641;HTU21D;62201;49.966;8.342;2022-08-21T14:45:30;33.49;19.72
61641;HTU21D;62201;49.966;8.342;2022-08-21T14:47:57;33.87;19.35
61641;HTU21D;62201;49.966;8.342;2022-08-21T14:50:22;34.39;18.98
61641;HTU21D;62201;49.966;8.342;2022-08-21T14:52:48;34.49;18.61
61641;HTU21D;62201;49.966;8.342;2022-08-21T14:55:15;34.75;18.12
61641;HTU21D;62201;49.966;8.342;2022-08-21T14:57:47;33.97;18.89
61641;HTU21D;62201;49.966;8.342;2022-08-21T15:00:16;33.07;20.03
61641;HTU21D;62201;49.966;8.342;2022-08-21T15:02:42;33.71;19.42
61641;HTU21D;62201;49.966;8.342;2022-08-21T15:05:08;33.85;18.99
61641;HTU21D;62201;49.966;8.342;2022-08-21T15:07:33;34.15;18.77
61641;HTU21D;62201;49.966;8.342;2022-08-21T15:09:58;33.49;19.60
61641;HTU21D;62201;49.966;8.342;2022-08-21T15:12:25;32.11;21.11
61641;HTU21D;62201;49.966;8.342;2022-08-21T15:14:50;31.09;23.51
61641;HTU21D;62201;49.966;8.342;2022-08-21T15:17:16;30.65;25.29
61641;HTU21D;62201;49.966;8.342;2022-08-21T15:19:42;31.25;25.17
61641;HTU21D;62201;49.966;8.342;2022-08-21T15:22:07;31.99;23.47
61641;HTU21D;62201;49.966;8.342;2022-08-21T15:24:33;32.61;22.14
61641;HTU21D;62201;49.966;8.342;2022-08-21T15:27:00;33.12;21.53
61641;HTU21D;62201;49.966;8.342;2022-08-21T15:29:26;33.53;20.82
61641;HTU21D;62201;49.966;8.342;2022-08-21T15:31:55;33.49;20.11
61641;HTU21D;62201;49.966;8.342;2022-08-21T15:34:22;33.38;20.21
61641;HTU21D;62201;49.966;8.342;2022-08-21T15:36:47;33.59;20.08
61641;HTU21D;62201;49.966;8.342;2022-08-21T15:39:13;33.48;19.67
61641;HTU21D;62201;49.966;8.342;2022-08-21T15:41:39;33.48;21.10
61641;HTU21D;62201;49.966;8.342;2022-08-21T15:44:05;33.79;20.56
61641;HTU21D;62201;49.966;8.342;2022-08-21T15:46:31;33.64;20.10
61641;HTU21D;62201;49.966;8.342;2022-08-21T15:49:00;32.49;21.37
61641;HTU21D;62201;49.966;8.342;2022-08-21T15:51:28;31.55;23.01
61641;HTU21D;62201;49.966;8.342;2022-08-21T15:53:54;30.65;23.86
61641;HTU21D;62201;49.966;8.342;2022-08-21T15:56:21;30.48;24.07
61641;HTU21D;62201;49.966;8.342;2022-08-21T15:58:59;30.76;23.90
61641;HTU21D;62201;49.966;8.342;2022-08-21T16:01:25;30.52;24.75
61641;HTU21D;62201;49.966;8.342;2022-08-21T16:03:53;29.92;25.81
61641;HTU21D;62201;49.966;8.342;2022-08-21T16:06:19;29.48;26.22
61641;HTU21D;62201;49.966;8.342;2022-08-21T16:08:44;29.24;26.20
61641;HTU21D;62201;49.966;8.342;2022-08-21T16:11:11;29.03;26.64
61641;HTU21D;62201;49.966;8.342;2022-08-21T16:13:40;28.90;27.13
61641;HTU21D;62201;49.966;8.342;2022-08-21T16:16:16;28.77;27.39
61641;HTU21D;62201;49.966;8.342;2022-08-21T16:18:42;28.67;28.11
61641;HTU21D;62201;49.966;8.342;2022-08-21T16:21:08;28.80;30.51